Time;durP1;ratioP1;P1;durP2;ratioP2;P2;SDS_P1;SDS_P2;PMS_P1;PMS_P2;Temp;Humidity;BMP_temperature;BMP_pressure;BME280_temperature;BME280_humidity;BME280_pressure;Samples;Min_cycle;Max_cycle;Signal;HPM_P1;HPM_P2
2023/08/25 00:02:22;;;;;;;7.60;5.10;;;;;;;17.87;100.00;100563.81;7392804;19;20414;-47
2023/08/25 00:04:55;;;;;;;8.30;5.13;;;;;;;17.94;100.00;100565.59;7365782;19;20447;-47
2023/08/25 00:07:25;;;;;;;6.30;4.67;;;;;;;17.88;100.00;100549.91;7393695;19;20407;-49
2023/08/25 00:09:54;;;;;;;9.17;5.43;;;;;;;17.85;100.00;100549.91;7364245;19;21032;-50
2023/08/25 00:12:24;;;;;;;7.40;4.93;;;;;;;17.85;100.00;100547.28;7391220;19;20421;-50
2023/08/25 00:14:53;;;;;;;8.57;5.43;;;;;;;17.86;100.00;100546.41;7373492;19;20435;-50
2023/08/25 00:17:23;;;;;;;9.00;5.10;;;;;;;17.91;100.00;100543.84;7397335;19;20415;-49
2023/08/25 00:19:55;;;;;;;8.90;6.10;;;;;;;17.90;100.00;100542.09;7370433;19;20495;-45
2023/08/25 00:22:25;;;;;;;9.70;5.33;;;;;;;17.93;100.00;100532.56;7400385;19;20869;-47
2023/08/25 00:24:56;;;;;;;10.30;6.50;;;;;;;17.92;100.00;100536.03;7373556;19;20425;-48
2023/08/25 00:27:25;;;;;;;9.63;6.43;;;;;;;17.88;100.00;100520.31;7397647;19;20407;-48
2023/08/25 00:29:55;;;;;;;10.93;6.33;;;;;;;17.87;100.00;100527.28;7370745;19;21281;-49
2023/08/25 00:32:25;;;;;;;13.83;6.40;;;;;;;17.83;100.00;100522.88;7397667;19;20486;-51
2023/08/25 00:34:57;;;;;;;9.53;7.30;;;;;;;17.87;100.00;100513.34;7372779;19;20442;-48
2023/08/25 00:37:27;;;;;;;12.60;8.30;;;;;;;17.91;100.00;100508.19;7397224;19;20485;-48
2023/08/25 00:39:57;;;;;;;9.43;7.40;;;;;;;17.91;100.00;100512.53;7370730;19;20459;-50
2023/08/25 00:42:26;;;;;;;10.57;7.70;;;;;;;17.94;100.00;100502.97;7397015;19;20412;-50
2023/08/25 00:44:56;;;;;;;10.97;8.13;;;;;;;17.99;100.00;100496.94;7373367;19;20508;-44
2023/08/25 00:47:26;;;;;;;10.77;7.90;;;;;;;18.00;100.00;100491.69;7396667;19;20475;-47
2023/08/25 00:49:58;;;;;;;12.93;8.13;;;;;;;18.03;100.00;100498.66;7369833;19;20455;-47
2023/08/25 00:52:28;;;;;;;10.37;8.57;;;;;;;18.03;100.00;100490.84;7396588;19;20807;-47
2023/08/25 00:54:58;;;;;;;13.20;8.60;;;;;;;18.04;100.00;100495.19;7372588;19;20427;-46
2023/08/25 00:57:28;;;;;;;13.60;8.73;;;;;;;18.07;100.00;100484.81;7397096;19;20408;-47
2023/08/25 00:59:57;;;;;;;11.23;9.00;;;;;;;18.05;100.00;100479.59;7369780;19;20469;-48
2023/08/25 01:02:27;;;;;;;10.80;8.37;;;;;;;18.04;100.00;100479.53;7396695;19;20403;-49
2023/08/25 01:05:00;;;;;;;12.33;9.10;;;;;;;18.04;100.00;100480.41;7372665;19;20427;-47
2023/08/25 01:07:30;;;;;;;11.80;8.77;;;;;;;18.05;100.00;100476.09;7396545;19;20482;-48
2023/08/25 01:09:59;;;;;;;10.40;8.83;;;;;;;18.05;100.00;100466.53;7369470;19;20459;-51
2023/08/25 01:12:49;;;;;;;14.93;10.70;;;;;;;18.06;100.00;100464.81;7396112;19;20478;-45
2023/08/25 01:15:24;;;;;;;13.23;9.70;;;;;;;18.06;100.00;100459.59;7375550;19;20506;-47
2023/08/25 01:17:58;;;;;;;12.97;9.50;;;;;;;18.09;100.00;100459.59;7372559;19;20407;-45
2023/08/25 01:20:31;;;;;;;12.83;10.27;;;;;;;18.07;100.00;100461.34;7394177;19;20455;-48
2023/08/25 01:23:06;;;;;;;18.03;11.10;;;;;;;18.06;100.00;100460.44;7373026;19;20408;-49
2023/08/25 01:25:39;;;;;;;12.20;9.80;;;;;;;18.05;100.00;100461.31;7393750;19;20403;-47
2023/08/25 01:28:08;;;;;;;15.70;9.60;;;;;;;18.08;100.00;100465.69;7371049;19;20481;-51
2023/08/25 01:30:39;;;;;;;12.60;10.23;;;;;;;18.10;100.00;100453.50;7394276;19;20407;-50
2023/08/25 01:33:08;;;;;;;12.33;10.10;;;;;;;18.13;100.00;100453.53;7372184;19;20431;-51
2023/08/25 01:35:48;;;;;;;15.97;10.97;;;;;;;18.13;100.00;100455.25;7394596;19;20475;-52
2023/08/25 01:38:21;;;;;;;11.30;9.80;;;;;;;18.10;100.00;100470.91;7366878;19;20434;-48
2023/08/25 01:40:57;;;;;;;12.93;9.57;;;;;;;18.10;100.00;100477.00;7394049;19;20491;-49
2023/08/25 01:43:28;;;;;;;11.80;10.53;;;;;;;18.11;100.00;100473.56;7371126;19;20426;-51
2023/08/25 01:45:59;;;;;;;14.87;10.30;;;;;;;18.12;100.00;100464.84;7395262;19;20407;-50
2023/08/25 01:48:32;;;;;;;12.70;10.17;;;;;;;18.12;100.00;100463.97;7369412;19;20852;-47
2023/08/25 01:51:02;;;;;;;13.23;9.93;;;;;;;18.13;100.00;100463.09;7396570;19;20408;-49
2023/08/25 01:53:32;;;;;;;16.20;11.00;;;;;;;18.18;100.00;100459.66;7370073;19;20435;-49
2023/08/25 01:56:04;;;;;;;11.83;10.00;;;;;;;18.25;100.00;100462.31;7397926;19;20420;-51
2023/08/25 01:58:34;;;;;;;13.80;10.50;;;;;;;18.28;100.00;100459.69;7370706;19;20459;-45
2023/08/25 02:01:03;;;;;;;14.73;11.47;;;;;;;18.28;100.00;100467.53;7394333;19;20954;-50
2023/08/25 02:03:33;;;;;;;14.67;11.00;;;;;;;18.33;100.00;100463.22;7369759;19;20431;-48
2023/08/25 02:06:03;;;;;;;16.90;12.73;;;;;;;18.35;100.00;100472.81;7394793;19;20403;-50
2023/08/25 02:08:32;;;;;;;15.03;11.67;;;;;;;18.42;100.00;100473.72;7369821;19;20462;-49
2023/08/25 02:11:05;;;;;;;17.97;13.57;;;;;;;18.46;100.00;100480.69;7394351;19;20426;-50
2023/08/25 02:13:35;;;;;;;17.13;12.83;;;;;;;18.53;100.00;100494.66;7369880;19;20990;-50
2023/08/25 02:16:05;;;;;;;20.40;14.50;;;;;;;18.54;100.00;100499.00;7395215;19;20792;-50
2023/08/25 02:18:34;;;;;;;19.40;14.20;;;;;;;18.51;100.00;100504.19;7369597;19;20467;-42
2023/08/25 02:21:04;;;;;;;23.27;15.50;;;;;;;18.53;100.00;100512.06;7394524;19;20478;-46
2023/08/25 02:23:33;;;;;;;18.80;14.17;;;;;;;18.51;100.00;100511.19;7369031;19;20520;-47
2023/08/25 02:26:06;;;;;;;19.60;15.00;;;;;;;18.56;100.00;100517.31;7396713;19;21080;-47
2023/08/25 02:28:35;;;;;;;26.83;16.57;;;;;;;18.51;100.00;100513.78;7368546;19;20558;-45
2023/08/25 02:31:05;;;;;;;23.00;16.00;;;;;;;18.53;100.00;100517.28;7395898;19;20474;-47
2023/08/25 02:33:36;;;;;;;22.60;15.30;;;;;;;18.49;100.00;100514.66;7369564;19;20505;-48
2023/08/25 02:36:06;;;;;;;21.90;16.27;;;;;;;18.47;100.00;100513.75;7392102;19;20431;-51
2023/08/25 02:38:35;;;;;;;26.00;18.37;;;;;;;18.47;100.00;100503.31;7368295;19;20538;-48
2023/08/25 02:41:08;;;;;;;26.10;17.23;;;;;;;18.44;100.00;100499.81;7393824;19;20472;-49
2023/08/25 02:43:37;;;;;;;34.03;19.07;;;;;;;18.48;100.00;100496.38;7369422;19;20412;-50
2023/08/25 02:46:07;;;;;;;24.43;17.70;;;;;;;18.46;100.00;100496.34;7396247;19;20406;-44
2023/08/25 02:48:37;;;;;;;22.40;16.27;;;;;;;18.44;100.00;100497.22;7368174;19;20850;-51
2023/08/25 02:51:06;;;;;;;24.87;16.33;;;;;;;18.40;100.00;100496.31;7394291;19;20504;-45
2023/08/25 02:53:36;;;;;;;24.77;16.67;;;;;;;18.39;100.00;100484.13;7368510;19;20419;-47
2023/08/25 02:56:08;;;;;;;27.63;18.03;;;;;;;18.41;100.00;100481.53;7393793;19;20400;-46
2023/08/25 02:58:38;;;;;;;24.40;17.80;;;;;;;18.37;100.00;100474.53;7369172;19;20478;-45
2023/08/25 03:01:13;;;;;;;24.03;17.77;;;;;;;18.35;100.00;100464.97;7391525;19;20416;-49
2023/08/25 03:03:44;;;;;;;28.53;18.63;;;;;;;18.30;100.00;100471.91;7371122;19;20429;-46
2023/08/25 03:06:13;;;;;;;30.60;20.30;;;;;;;18.28;100.00;100457.97;7392486;19;20396;-47
2023/08/25 03:08:45;;;;;;;25.00;18.70;;;;;;;18.29;100.00;100456.22;7369574;19;20447;-49
2023/08/25 03:11:17;;;;;;;22.17;18.47;;;;;;;18.25;100.00;100449.25;7392003;19;20731;-45
2023/08/25 03:13:46;;;;;;;24.27;19.27;;;;;;;18.21;100.00;100449.22;7370284;19;20416;-47
2023/08/25 03:16:16;;;;;;;31.90;19.27;;;;;;;18.19;100.00;100440.53;7391945;19;20400;-45
2023/08/25 03:18:46;;;;;;;38.50;21.70;;;;;;;18.17;100.00;100449.19;7370184;19;20451;-48
2023/08/25 03:21:16;;;;;;;31.50;20.33;;;;;;;18.18;100.00;100443.13;7391929;19;20424;-47
2023/08/25 03:23:46;;;;;;;27.60;19.40;;;;;;;18.16;100.00;100435.25;7370422;19;20419;-46
2023/08/25 03:26:18;;;;;;;28.03;20.77;;;;;;;18.12;100.00;100438.75;7391335;19;20402;-47
2023/08/25 03:28:47;;;;;;;41.10;23.73;;;;;;;18.08;100.00;100432.63;7369488;19;20550;-48
2023/08/25 03:31:17;;;;;;;30.90;20.80;;;;;;;18.06;100.00;100430.88;7391952;19;20415;-45
2023/08/25 03:33:46;;;;;;;30.07;20.83;;;;;;;18.07;100.00;100430.91;7368948;19;20424;-46
2023/08/25 03:36:16;;;;;;;33.77;20.60;;;;;;;18.07;100.00;100425.69;7392865;19;20428;-48
2023/08/25 03:38:46;;;;;;;30.60;20.70;;;;;;;18.03;100.00;100422.97;7367683;19;20975;-48
2023/08/25 03:41:18;;;;;;;30.90;20.57;;;;;;;18.03;100.00;100413.44;7392226;19;20811;-47
2023/08/25 03:43:48;;;;;;;29.07;21.50;;;;;;;18.01;100.00;100415.16;7369549;19;20880;-48
2023/08/25 03:46:17;;;;;;;33.80;22.43;;;;;;;18.01;100.00;100414.28;7390531;19;20491;-49
2023/08/25 03:48:47;;;;;;;31.20;22.27;;;;;;;18.00;100.00;100410.78;7374886;19;20828;-45
2023/08/25 03:51:17;;;;;;;36.60;21.53;;;;;;;18.01;100.00;100406.44;7396922;19;20403;-55
2023/08/25 03:53:46;;;;;;;30.70;20.97;;;;;;;17.96;100.00;100406.44;7377277;19;20429;-46
2023/08/25 03:56:18;;;;;;;33.13;21.80;;;;;;;17.95;100.00;100405.56;7400003;19;20983;-46
2023/08/25 03:58:48;;;;;;;32.50;21.57;;;;;;;17.94;100.00;100414.25;7376397;19;20514;-46
2023/08/25 04:01:18;;;;;;;40.10;21.90;;;;;;;17.95;100.00;100404.69;7397031;19;20408;-45
2023/08/25 04:03:47;;;;;;;35.33;23.20;;;;;;;17.91;100.00;100410.75;7376075;19;20415;-46
2023/08/25 04:06:17;;;;;;;28.93;20.67;;;;;;;17.90;100.00;100411.63;7397284;19;20433;-51
2023/08/25 04:08:47;;;;;;;35.23;22.10;;;;;;;17.87;100.00;100411.59;7374207;19;20492;-51
2023/08/25 04:11:19;;;;;;;35.57;23.37;;;;;;;17.86;100.00;100400.28;7396175;19;20399;-50
2023/08/25 04:13:49;;;;;;;31.60;22.80;;;;;;;17.87;100.00;100396.81;7375479;19;20785;-47
2023/08/25 04:16:19;;;;;;;31.33;21.93;;;;;;;17.84;100.00;100399.38;7396829;19;20431;-47
2023/08/25 04:18:49;;;;;;;39.07;24.57;;;;;;;17.85;100.00;100403.78;7374122;19;20543;-49
2023/08/25 04:21:18;;;;;;;40.93;24.07;;;;;;;17.80;100.00;100406.31;7396359;19;20414;-47
2023/08/25 04:23:48;;;;;;;39.07;25.47;;;;;;;17.81;100.00;100409.81;7374827;19;20496;-47
2023/08/25 04:26:20;;;;;;;37.70;24.40;;;;;;;17.82;100.00;100406.34;7396805;19;20400;-44
2023/08/25 04:28:50;;;;;;;38.40;25.03;;;;;;;17.80;100.00;100406.31;7373933;19;20455;-45
2023/08/25 04:31:19;;;;;;;35.17;23.70;;;;;;;17.79;100.00;100404.59;7398861;19;20405;-45
2023/08/25 04:33:49;;;;;;;38.70;24.60;;;;;;;17.84;100.00;100406.38;7375820;19;20439;-50
2023/08/25 04:36:18;;;;;;;36.70;25.10;;;;;;;17.80;100.00;100400.25;7396695;19;20403;-48
2023/08/25 04:38:48;;;;;;;35.60;24.03;;;;;;;17.76;100.00;100408.91;7374760;19;20459;-44
2023/08/25 04:41:21;;;;;;;33.90;23.47;;;;;;;17.78;100.00;100405.44;7395563;19;20415;-44
2023/08/25 04:43:50;;;;;;;38.57;25.43;;;;;;;17.80;100.00;100406.31;7373506;19;20498;-44
2023/08/25 04:46:20;;;;;;;39.13;25.70;;;;;;;17.77;100.00;100406.31;7391209;19;20403;-47
2023/08/25 04:48:49;;;;;;;35.10;24.60;;;;;;;17.80;100.00;100421.13;7372448;19;20459;-45
2023/08/25 04:51:19;;;;;;;39.33;24.80;;;;;;;17.76;100.00;100411.53;7397751;19;20409;-46
2023/08/25 04:53:49;;;;;;;38.83;24.83;;;;;;;17.75;100.00;100418.47;7372900;19;21047;-46
2023/08/25 04:56:21;;;;;;;42.60;26.40;;;;;;;17.77;100.00;100426.31;7398900;19;20403;-48
2023/08/25 04:58:50;;;;;;;36.63;25.87;;;;;;;17.78;100.00;100428.06;7371322;19;20529;-50
2023/08/25 05:01:20;;;;;;;65.20;36.60;;;;;;;17.81;100.00;100425.47;7395208;19;20766;-47
2023/08/25 05:03:50;;;;;;;51.97;31.20;;;;;;;17.85;100.00;100424.66;7372565;19;21496;-49
2023/08/25 05:06:19;;;;;;;41.33;27.63;;;;;;;17.88;100.00;100421.16;7395184;19;20403;-47
2023/08/25 05:08:49;;;;;;;44.67;28.40;;;;;;;17.93;100.00;100425.56;7372149;19;20462;-48
2023/08/25 05:11:21;;;;;;;39.90;27.43;;;;;;;17.94;100.00;100424.69;7394598;19;20971;-47
2023/08/25 05:13:51;;;;;;;51.47;28.30;;;;;;;18.01;100.00;100419.50;7372890;19;20425;-51
2023/08/25 05:16:21;;;;;;;46.93;28.37;;;;;;;18.05;100.00;100421.28;7395229;19;20403;-51
2023/08/25 05:18:50;;;;;;;46.13;27.27;;;;;;;18.06;100.00;100417.81;7372111;19;20491;-46
2023/08/25 05:21:20;;;;;;;41.97;27.90;;;;;;;18.09;100.00;100420.44;7394189;19;20419;-48
2023/08/25 05:23:53;;;;;;;53.97;28.33;;;;;;;18.11;100.00;100426.56;7373164;19;20530;-48
2023/08/25 05:26:25;;;;;;;42.27;27.00;;;;;;;18.15;100.00;100423.09;7394691;19;20411;-51
2023/08/25 05:28:54;;;;;;;44.30;28.90;;;;;;;18.20;100.00;100421.38;7371392;19;20944;-48
2023/08/25 05:31:24;;;;;;;46.30;27.80;;;;;;;18.22;100.00;100426.59;7394988;19;20404;-51
2023/08/25 05:33:54;;;;;;;55.43;28.00;;;;;;;18.22;100.00;100427.47;7373123;19;20423;-48
2023/08/25 05:36:24;;;;;;;50.07;28.93;;;;;;;18.25;100.00;100425.75;7394882;19;20475;-45
2023/08/25 05:38:54;;;;;;;56.20;31.40;;;;;;;18.29;100.00;100425.78;7370682;19;20443;-49
2023/08/25 05:41:26;;;;;;;50.83;29.97;;;;;;;18.28;100.00;100421.41;7394412;19;20752;-47
2023/08/25 05:43:56;;;;;;;50.83;30.47;;;;;;;18.29;100.00;100430.09;7372748;19;20819;-52
2023/08/25 05:46:25;;;;;;;54.90;32.03;;;;;;;18.33;100.00;100426.66;7394186;19;20771;-49
2023/08/25 05:48:55;;;;;;;49.67;30.13;;;;;;;18.33;100.00;100426.66;7372424;19;20463;-45
2023/08/25 05:51:25;;;;;;;56.40;33.33;;;;;;;18.31;100.00;100437.09;7395830;19;20410;-50
2023/08/25 05:53:55;;;;;;;60.30;34.07;;;;;;;18.30;100.00;100443.19;7371970;19;20933;-48
2023/08/25 05:56:28;;;;;;;61.73;37.27;;;;;;;18.32;100.00;100441.44;7395736;19;20483;-49
2023/08/25 05:59:01;;;;;;;56.17;34.93;;;;;;;18.39;100.00;100442.34;7372434;19;20523;-48
2023/08/25 06:01:31;;;;;;;51.30;31.70;;;;;;;18.36;100.00;100437.13;7393898;19;20403;-51
2023/08/25 06:04:03;;;;;;;58.23;35.10;;;;;;;18.41;100.00;100438.00;7372899;19;20419;-46
2023/08/25 06:06:33;;;;;;;58.40;34.67;;;;;;;18.44;100.00;100444.97;7394984;19;20407;-47
2023/08/25 06:09:02;;;;;;;56.00;33.33;;;;;;;18.50;100.00;100439.78;7371115;19;20459;-48
2023/08/25 06:11:37;;;;;;;57.33;34.90;;;;;;;18.53;100.00;100438.91;7395362;19;20420;-47
2023/08/25 06:14:07;;;;;;;75.60;41.87;;;;;;;18.52;100.00;100435.44;7372617;19;20502;-49
2023/08/25 06:16:39;;;;;;;57.60;33.57;;;;;;;18.59;100.00;100438.94;7394459;19;20972;-51
2023/08/25 06:19:09;;;;;;;55.83;33.67;;;;;;;18.65;100.00;100448.56;7370909;19;20459;-46
2023/08/25 06:21:38;;;;;;;60.47;33.87;;;;;;;18.63;100.00;100456.38;7394269;19;20400;-50
2023/08/25 06:24:10;;;;;;;53.67;33.80;;;;;;;18.63;100.00;100459.84;7370554;19;20415;-47
2023/08/25 06:26:43;;;;;;;66.33;35.20;;;;;;;18.68;100.00;100454.66;7394556;19;20396;-52
2023/08/25 06:29:14;;;;;;;65.10;35.20;;;;;;;18.69;100.00;100455.50;7368882;19;20522;-48
2023/08/25 06:31:43;;;;;;;59.63;35.17;;;;;;;18.73;100.00;100452.91;7394238;19;20502;-50
2023/08/25 06:34:13;;;;;;;56.77;34.53;;;;;;;18.79;100.00;100461.66;7370077;19;20427;-50
2023/08/25 06:36:43;;;;;;;54.30;29.67;;;;;;;18.87;100.00;100459.94;7393912;19;20414;-49
2023/08/25 06:39:13;;;;;;;59.43;34.50;;;;;;;18.93;100.00;100467.81;7368349;19;20542;-52
2023/08/25 06:41:46;;;;;;;58.47;32.63;;;;;;;18.92;100.00;100468.66;7394749;19;20409;-51
2023/08/25 06:44:19;;;;;;;60.13;34.60;;;;;;;18.92;100.00;100468.66;7370007;19;20426;-47
2023/08/25 06:46:48;;;;;;;56.67;33.53;;;;;;;18.93;100.00;100478.25;7393624;19;20998;-48
2023/08/25 06:49:18;;;;;;;55.33;34.00;;;;;;;18.93;100.00;100483.50;7367788;19;20466;-45
2023/08/25 06:51:48;;;;;;;67.57;33.90;;;;;;;18.94;100.00;100487.84;7393679;19;21267;-49
2023/08/25 06:54:17;;;;;;;60.63;35.70;;;;;;;18.96;100.00;100479.97;7369206;19;20425;-50
2023/08/25 06:56:50;;;;;;;60.23;33.90;;;;;;;18.98;100.00;100489.56;7393469;19;20839;-50
2023/08/25 06:59:19;;;;;;;59.40;34.50;;;;;;;19.04;100.00;100473.09;7368773;19;20447;-51
2023/08/25 07:01:49;;;;;;;59.77;33.60;;;;;;;19.08;100.00;100476.56;7393478;19;20432;-50
2023/08/25 07:04:19;;;;;;;59.37;35.63;;;;;;;19.14;100.00;100473.97;7369132;19;20423;-47
2023/08/25 07:06:49;;;;;;;61.70;34.43;;;;;;;19.12;100.00;100480.94;7393495;19;20424;-47
2023/08/25 07:09:19;;;;;;;53.90;32.53;;;;;;;19.11;100.00;100489.63;7368086;19;20542;-47
2023/08/25 07:11:51;;;;;;;61.10;34.83;;;;;;;19.12;100.00;100488.78;7394768;19;20418;-46
2023/08/25 07:14:20;;;;;;;50.67;30.80;;;;;;;19.18;100.00;100486.19;7369694;19;20820;-48
2023/08/25 07:16:50;;;;;;;51.87;31.80;;;;;;;19.16;100.00;100499.25;7393237;19;20494;-47
2023/08/25 07:19:20;;;;;;;48.57;30.57;;;;;;;19.28;100.00;100493.16;7366976;19;20883;-47
2023/08/25 07:21:49;;;;;;;52.53;30.53;;;;;;;19.27;100.00;100499.25;7391140;19;20411;-51
2023/08/25 07:24:20;;;;;;;53.47;30.43;;;;;;;19.30;100.00;100522.78;7368782;19;20495;-50
2023/08/25 07:26:52;;;;;;;49.23;29.93;;;;;;;19.34;100.00;100521.09;7392861;19;20411;-46
2023/08/25 07:29:22;;;;;;;53.30;30.40;;;;;;;19.36;100.00;100527.19;7366770;19;20455;-50
2023/08/25 07:31:51;;;;;;;45.40;28.37;;;;;;;19.51;100.00;100531.56;7391525;19;20417;-46
2023/08/25 07:34:21;;;;;;;49.63;27.73;;;;;;;19.66;100.00;100548.13;7369320;19;20434;-50
2023/08/25 07:36:51;;;;;;;48.93;28.77;;;;;;;19.65;100.00;100555.09;7392673;19;20411;-48
2023/08/25 07:39:20;;;;;;;46.47;28.20;;;;;;;19.63;100.00;100559.47;7366890;19;20551;-48
2023/08/25 07:41:52;;;;;;;43.27;25.70;;;;;;;19.69;100.00;100563.84;7391768;19;21069;-46
2023/08/25 07:44:22;;;;;;;41.43;25.23;;;;;;;19.68;100.00;100580.41;7368869;19;20425;-47
2023/08/25 07:46:52;;;;;;;38.37;23.60;;;;;;;19.78;100.00;100594.38;7391778;19;20786;-52
2023/08/25 07:49:22;;;;;;;35.40;23.23;;;;;;;19.79;100.00;100586.53;7366136;19;20455;-48
2023/08/25 07:51:51;;;;;;;39.07;23.10;;;;;;;19.70;100.00;100597.00;7391844;19;20428;-49
2023/08/25 07:54:21;;;;;;;37.40;21.50;;;;;;;19.80;100.00;100608.34;7367299;19;20431;-45
2023/08/25 07:56:53;;;;;;;47.43;28.07;;;;;;;19.84;100.00;100607.47;7391118;19;20939;-48
2023/08/25 07:59:23;;;;;;;37.50;22.43;;;;;;;19.96;100.00;100622.34;7366170;19;20534;-48
2023/08/25 08:01:53;;;;;;;33.07;21.47;;;;;;;20.01;100.00;100625.84;7393152;19;20761;-49
2023/08/25 08:04:22;;;;;;;44.60;26.40;;;;;;;20.16;100.00;100626.72;7365908;19;20419;-47
2023/08/25 08:06:52;;;;;;;30.47;20.70;;;;;;;20.27;100.00;100645.94;7393390;19;20412;-45
2023/08/25 08:09:21;;;;;;;33.13;21.67;;;;;;;20.27;100.00;100658.16;7363386;19;20535;-49
2023/08/25 08:11:54;;;;;;;32.23;21.50;;;;;;;20.06;100.00;100658.13;7387104;19;20435;-51
2023/08/25 08:14:23;;;;;;;34.73;23.03;;;;;;;20.00;100.00;100659.88;7364232;19;20470;-49
2023/08/25 08:17:13;;;;;;;33.77;21.77;;;;;;;20.05;100.00;100666.84;7389172;19;21303;-49
2023/08/25 08:19:43;;;;;;;37.97;24.93;;;;;;;20.06;100.00;100665.97;7362146;19;21045;-46
2023/08/25 08:22:12;;;;;;;40.33;23.50;;;;;;;20.04;100.00;100672.97;7387207;19;20949;-48
2023/08/25 08:24:42;;;;;;;32.23;21.40;;;;;;;19.99;100.00;100685.19;7364606;19;21105;-44
2023/08/25 08:27:22;;;;;;;31.40;21.20;;;;;;;20.13;100.00;100687.81;7388174;19;20411;-49
2023/08/25 08:29:51;;;;;;;30.27;18.63;;;;;;;20.26;100.00;100679.97;7362820;19;21065;-46
2023/08/25 08:32:22;;;;;;;33.83;22.13;;;;;;;20.34;100.00;100672.97;7388177;19;20482;-49
2023/08/25 08:34:52;;;;;;;33.70;19.10;;;;;;;20.32;100.00;100688.72;7369707;19;20435;-45
2023/08/25 08:37:21;;;;;;;34.87;21.70;;;;;;;20.32;100.00;100687.84;7394030;19;20407;-46
2023/08/25 08:39:51;;;;;;;27.83;18.07;;;;;;;20.48;100.00;100694.84;7369370;19;21066;-46
2023/08/25 08:42:23;;;;;;;37.23;25.07;;;;;;;20.51;100.00;100694.81;7392620;19;20429;-47
2023/08/25 08:44:53;;;;;;;34.00;21.43;;;;;;;20.47;100.00;100697.44;7374686;19;20978;-47
2023/08/25 08:47:22;;;;;;;36.50;22.47;;;;;;;20.48;100.00;100699.19;7397323;19;20412;-46
2023/08/25 08:49:53;;;;;;;30.63;19.50;;;;;;;20.53;100.00;100686.06;7372804;19;20549;-45
2023/08/25 08:52:23;;;;;;;42.30;27.70;;;;;;;20.51;100.00;100684.34;7397494;19;20417;-49
2023/08/25 08:54:52;;;;;;;39.77;27.00;;;;;;;20.44;100.00;100695.69;7374938;19;20433;-50
2023/08/25 08:57:24;;;;;;;39.27;26.03;;;;;;;20.37;100.00;100700.06;7396270;19;20401;-44
2023/08/25 08:59:54;;;;;;;39.63;23.80;;;;;;;20.42;100.00;100691.34;7368426;19;20462;-43
2023/08/25 09:02:24;;;;;;;33.80;22.10;;;;;;;20.33;100.00;100687.84;7395930;19;20392;-45
2023/08/25 09:04:55;;;;;;;31.00;20.07;;;;;;;20.44;100.00;100686.94;7372906;19;20416;-46
2023/08/25 09:07:26;;;;;;;39.10;23.00;;;;;;;20.45;100.00;100676.47;7399838;19;20407;-47
2023/08/25 09:09:56;;;;;;;37.80;23.33;;;;;;;20.62;100.00;100681.69;7371202;19;20451;-47
2023/08/25 09:12:29;;;;;;;41.57;25.20;;;;;;;20.50;100.00;100692.19;7396959;19;20408;-48
2023/08/25 09:14:58;;;;;;;35.10;23.00;;;;;;;20.52;100.00;100698.31;7373189;19;20583;-47
2023/08/25 09:17:28;;;;;;;32.60;22.00;;;;;;;20.56;100.00;100705.28;7397891;19;20415;-51
2023/08/25 09:20:06;;;;;;;31.93;18.67;;;;;;;20.70;100.00;100699.16;7371547;19;20550;-48
2023/08/25 09:22:36;;;;;;;32.83;20.80;;;;;;;20.59;100.00;100707.94;7396100;19;20407;-46
2023/08/25 09:25:06;;;;;;;33.90;21.47;;;;;;;20.63;100.00;100714.88;7376418;19;20423;-49
2023/08/25 09:27:38;;;;;;;42.50;27.00;;;;;;;20.51;100.00;100707.06;7396947;19;20954;-47
2023/08/25 09:30:10;;;;;;;34.17;22.00;;;;;;;20.44;100.00;100721.00;7373383;19;20519;-47
2023/08/25 09:32:40;;;;;;;35.30;21.73;;;;;;;20.39;100.00;100730.66;7397407;19;20439;-46
2023/08/25 09:35:15;;;;;;;36.63;23.80;;;;;;;20.46;100.00;100719.28;7380390;19;20439;-41
2023/08/25 09:37:45;;;;;;;32.00;19.70;;;;;;;20.46;100.00;100722.75;7378743;19;20410;-41
2023/08/25 09:40:15;;;;;;;36.63;23.63;;;;;;;20.47;100.00;100721.88;7396886;19;20927;-40
2023/08/25 09:42:47;;;;;;;23.50;17.07;;;;;;;20.51;100.00;100714.94;7379119;19;20461;-44
2023/08/25 09:45:17;;;;;;;35.27;21.50;;;;;;;20.51;100.00;100734.13;7398628;19;20943;-43
2023/08/25 09:47:46;;;;;;;30.90;20.70;;;;;;;20.47;100.00;100734.13;7376670;19;20452;-41
2023/08/25 09:50:17;;;;;;;33.03;19.40;;;;;;;20.50;100.00;100728.88;7397862;19;20510;-41
2023/08/25 09:52:47;;;;;;;25.90;17.67;;;;;;;20.51;100.00;100735.88;7376643;19;20411;-44
2023/08/25 09:55:17;;;;;;;28.53;19.17;;;;;;;20.59;100.00;100723.66;7398395;19;20821;-42
2023/08/25 09:57:49;;;;;;;24.83;16.87;;;;;;;20.74;100.00;100735.88;7375474;19;20409;-40
2023/08/25 10:00:20;;;;;;;29.07;19.57;;;;;;;20.89;100.00;100737.63;7397858;19;20511;-44
2023/08/25 10:02:51;;;;;;;23.00;15.43;;;;;;;21.06;100.00;100743.72;7378035;19;20423;-41
2023/08/25 10:05:22;;;;;;;28.90;17.63;;;;;;;20.91;100.00;100743.75;7398179;19;20404;-41
2023/08/25 10:07:52;;;;;;;26.53;18.03;;;;;;;20.82;100.00;100756.81;7375782;19;20444;-41
2023/08/25 10:10:24;;;;;;;31.60;19.17;;;;;;;20.76;100.00;100772.53;7393963;19;20435;-45
2023/08/25 10:12:57;;;;;;;27.80;17.17;;;;;;;20.77;100.00;100758.59;7371433;19;20415;-48
2023/08/25 10:15:30;;;;;;;23.40;16.47;;;;;;;20.73;100.00;100760.34;7394508;19;20403;-47
2023/08/25 10:18:03;;;;;;;27.93;17.80;;;;;;;20.66;100.00;100757.72;7375585;19;20427;-43
2023/08/25 10:20:33;;;;;;;26.70;17.67;;;;;;;20.61;100.00;100761.19;7394140;19;20970;-44
2023/08/25 10:23:04;;;;;;;24.40;14.93;;;;;;;20.71;100.00;100755.97;7372622;19;20555;-45
2023/08/25 10:25:34;;;;;;;26.60;16.33;;;;;;;20.76;100.00;100731.50;7395028;19;20411;-44
2023/08/25 10:28:09;;;;;;;25.50;17.33;;;;;;;20.70;100.00;100747.22;7373621;19;20832;-45
2023/08/25 10:30:38;;;;;;;23.20;15.97;;;;;;;20.77;100.00;100748.09;7394213;19;21016;-45
2023/08/25 10:33:11;;;;;;;23.53;16.30;;;;;;;20.75;100.00;100755.97;7372486;19;20418;-46
2023/08/25 10:35:46;;;;;;;22.50;15.70;;;;;;;20.81;100.00;100754.22;7395066;19;20947;-46
2023/08/25 10:38:39;;;;;;;26.40;18.53;;;;;;;20.81;100.00;100748.97;7371579;19;20426;-46
2023/08/25 10:41:20;;;;;;;27.00;17.47;;;;;;;20.86;100.00;100750.75;7396987;19;20538;-46
2023/08/25 10:43:54;;;;;;;26.60;16.77;;;;;;;20.84;100.00;100749.88;7371356;19;20435;-45
2023/08/25 10:46:26;;;;;;;23.77;16.70;;;;;;;20.83;100.00;100757.69;7395593;19;20432;-47
2023/08/25 10:49:15;;;;;;;23.77;14.87;;;;;;;20.79;100.00;100762.06;7371118;19;20474;-48
2023/08/25 10:51:45;;;;;;;26.70;18.00;;;;;;;20.66;100.00;100762.97;7397430;19;20459;-47
2023/08/25 10:54:19;;;;;;;30.40;17.10;;;;;;;20.61;100.00;100770.84;7370223;19;20431;-47
2023/08/25 10:56:53;;;;;;;24.90;15.87;;;;;;;20.72;100.00;100763.81;7392946;19;20412;-45
2023/08/25 10:59:26;;;;;;;27.20;15.63;;;;;;;20.72;100.00;100762.97;7369950;19;20542;-43
2023/08/25 11:01:58;;;;;;;25.40;17.33;;;;;;;20.67;100.00;100756.84;7398521;19;20764;-50
2023/08/25 11:04:29;;;;;;;25.57;17.10;;;;;;;20.67;100.00;100762.09;7370324;19;20522;-47
2023/08/25 11:07:01;;;;;;;22.43;15.37;;;;;;;20.67;100.00;100756.84;7396651;19;20419;-50
2023/08/25 11:09:35;;;;;;;21.53;15.10;;;;;;;20.62;100.00;100760.31;7368714;19;20463;-47
2023/08/25 11:12:09;;;;;;;23.57;14.90;;;;;;;20.64;100.00;100758.59;7397265;19;20490;-46
2023/08/25 11:14:44;;;;;;;31.30;15.90;;;;;;;20.62;100.00;100765.56;7370680;19;20768;-43
2023/08/25 11:17:17;;;;;;;21.53;15.47;;;;;;;20.56;100.00;100755.06;7394324;19;20808;-48
2023/08/25 11:19:48;;;;;;;24.20;15.80;;;;;;;20.52;100.00;100761.22;7369932;19;20547;-47